Time;durP1;ratioP1;P1;durP2;ratioP2;P2;SDS_P1;SDS_P2;PMS_P1;PMS_P2;Temp;Humidity;BMP_temperature;BMP_pressure;BME280_temperature;BME280_humidity;BME280_pressure;Samples;Min_cycle;Max_cycle;Signal;HPM_P1;HPM_P2
2022/03/13 00:02:07;;;;;;;6.97;4.65;;;;;17.60;101337.00;;;;5071147;28;20206;-77
2022/03/13 00:04:35;;;;;;;5.55;4.20;;;;;17.60;101334.00;;;;5070640;28;20585;-77
2022/03/13 00:07:04;;;;;;;6.00;4.53;;;;;17.60;101333.00;;;;5067860;28;20195;-77
2022/03/13 00:09:32;;;;;;;5.97;4.50;;;;;17.60;101339.00;;;;5058426;28;20264;-77
2022/03/13 00:12:03;;;;;;;7.60;5.13;;;;;17.60;101337.00;;;;5070996;28;20199;-77
2022/03/13 00:14:31;;;;;;;8.32;4.72;;;;;17.60;101333.00;;;;5058336;28;20196;-77
2022/03/13 00:16:59;;;;;;;6.55;4.35;;;;;17.60;101334.00;;;;5055200;28;20571;-77
2022/03/13 00:19:26;;;;;;;7.22;4.85;;;;;17.60;101342.00;;;;5061489;28;20265;-77
2022/03/13 00:21:55;;;;;;;7.00;4.75;;;;;17.60;101338.00;;;;5066248;28;20662;-77
2022/03/13 00:24:22;;;;;;;7.65;5.28;;;;;17.60;101327.00;;;;5063446;28;20261;-77
2022/03/13 00:26:51;;;;;;;6.72;4.70;;;;;17.60;101327.00;;;;5050763;28;20231;-77
2022/03/13 00:29:20;;;;;;;8.05;5.20;;;;;17.60;101331.00;;;;5061776;28;20218;-77
2022/03/13 00:31:47;;;;;;;6.25;4.20;;;;;17.60;101335.00;;;;5069263;28;20648;-77
2022/03/13 00:34:15;;;;;;;7.68;4.50;;;;;17.60;101329.00;;;;5058603;28;20620;-77
2022/03/13 00:36:43;;;;;;;7.65;4.70;;;;;17.60;101334.00;;;;5068942;28;20206;-77
2022/03/13 00:39:10;;;;;;;4.60;3.90;;;;;17.60;101324.00;;;;5068697;28;20195;-77
2022/03/13 00:41:37;;;;;;;6.88;4.85;;;;;17.50;101326.00;;;;5061791;28;20210;-77
2022/03/13 00:44:05;;;;;;;6.72;4.85;;;;;17.50;101318.00;;;;5049625;28;20723;-77
2022/03/13 00:46:34;;;;;;;5.95;4.35;;;;;17.50;101323.00;;;;5049554;28;20238;-76
2022/03/13 00:49:01;;;;;;;6.45;4.55;;;;;17.50;101333.00;;;;5049730;28;20238;-76
2022/03/13 00:51:29;;;;;;;5.78;4.40;;;;;17.50;101332.00;;;;5050370;28;20208;-77
2022/03/13 00:53:56;;;;;;;5.25;4.38;;;;;17.50;101321.00;;;;5050142;28;20207;-77
2022/03/13 00:56:23;;;;;;;6.25;4.20;;;;;17.50;101325.00;;;;5067388;28;20199;-77
2022/03/13 00:58:50;;;;;;;5.78;4.20;;;;;17.50;101323.00;;;;5060804;28;20214;-77
2022/03/13 01:01:18;;;;;;;5.13;3.72;;;;;17.50;101321.00;;;;5068652;28;20660;-77
2022/03/13 01:03:53;;;;;;;5.72;3.88;;;;;17.40;101321.00;;;;5052921;28;20195;-77
2022/03/13 01:06:22;;;;;;;4.95;3.63;;;;;17.50;101319.00;;;;5056225;28;20190;-77
2022/03/13 01:08:51;;;;;;;5.55;3.55;;;;;17.50;101320.00;;;;5067463;28;20245;-77
2022/03/13 01:11:20;;;;;;;4.28;3.25;;;;;17.50;101315.00;;;;5067295;28;20264;-77
2022/03/13 01:13:48;;;;;;;5.45;4.03;;;;;17.50;101313.00;;;;5057890;28;20194;-77
2022/03/13 01:16:17;;;;;;;5.32;3.88;;;;;17.50;101317.00;;;;5057156;28;20208;-77
2022/03/13 01:18:47;;;;;;;4.65;3.80;;;;;17.50;101315.00;;;;5063169;28;20226;-77
2022/03/13 01:21:16;;;;;;;4.47;3.13;;;;;17.40;101306.00;;;;5052423;28;20196;-76
2022/03/13 01:24:03;;;;;;;5.30;3.85;;;;;17.40;101304.00;;;;5049596;28;20211;-77
2022/03/13 01:26:38;;;;;;;4.45;3.38;;;;;17.40;101303.00;;;;5051824;28;20195;-76
2022/03/13 01:29:08;;;;;;;3.83;3.13;;;;;17.50;101304.00;;;;5049246;28;20196;-77
2022/03/13 01:31:37;;;;;;;4.82;3.33;;;;;17.40;101305.00;;;;5052828;28;20201;-77
2022/03/13 01:34:06;;;;;;;4.88;3.70;;;;;17.40;101298.00;;;;5068525;28;20207;-76
2022/03/13 01:36:35;;;;;;;3.67;3.25;;;;;17.40;101291.00;;;;5056914;28;20199;-77
2022/03/13 01:39:03;;;;;;;5.15;3.10;;;;;17.40;101286.00;;;;5049004;28;20712;-76
2022/03/13 01:41:32;;;;;;;3.75;2.90;;;;;17.40;101287.00;;;;5048668;28;21037;-76
2022/03/13 01:44:01;;;;;;;3.58;2.70;;;;;17.40;101289.00;;;;5053052;28;20191;-77
2022/03/13 01:46:29;;;;;;;4.15;3.10;;;;;17.40;101282.00;;;;5048621;28;20234;-76
2022/03/13 01:48:58;;;;;;;3.92;2.65;;;;;17.40;101278.00;;;;5049301;28;20210;-77
2022/03/13 01:51:27;;;;;;;4.43;3.20;;;;;17.30;101267.00;;;;5048392;28;20230;-77
2022/03/13 01:53:57;;;;;;;4.78;3.08;;;;;17.30;101268.00;;;;5049203;28;20249;-76
2022/03/13 01:56:25;;;;;;;4.28;3.20;;;;;17.30;101268.00;;;;5050799;28;20202;-77
2022/03/13 01:58:54;;;;;;;3.72;3.13;;;;;17.30;101256.00;;;;5068338;28;20233;-77
2022/03/13 02:01:24;;;;;;;3.88;3.25;;;;;17.30;101249.00;;;;5066107;28;20198;-77
2022/03/13 02:03:51;;;;;;;3.80;2.90;;;;;17.30;101247.00;;;;5049588;28;20307;-76
2022/03/13 02:06:20;;;;;;;4.30;3.15;;;;;17.20;101241.00;;;;5054383;28;20211;-76
2022/03/13 02:08:47;;;;;;;3.95;2.72;;;;;17.20;101243.00;;;;5050966;28;20199;-77
2022/03/13 02:11:19;;;;;;;5.00;3.33;;;;;17.20;101240.00;;;;5060979;28;20229;-77
2022/03/13 02:13:47;;;;;;;4.72;3.30;;;;;17.10;101237.00;;;;5049195;28;20211;-77
2022/03/13 02:16:15;;;;;;;4.70;2.95;;;;;17.10;101228.00;;;;5050690;28;20211;-77
2022/03/13 02:18:47;;;;;;;5.60;3.20;;;;;17.10;101242.00;;;;5069327;28;20213;-76
2022/03/13 02:21:15;;;;;;;5.03;3.80;;;;;17.10;101230.00;;;;5067904;28;20206;-77
2022/03/13 02:23:44;;;;;;;7.05;3.42;;;;;17.00;101232.00;;;;5064708;28;20203;-77
2022/03/13 02:26:12;;;;;;;4.93;3.95;;;;;17.00;101227.00;;;;5060979;28;20206;-77
2022/03/13 02:28:49;;;;;;;5.40;3.75;;;;;17.00;101223.00;;;;5050767;28;20211;-77
2022/03/13 02:31:24;;;;;;;6.18;3.83;;;;;16.90;101223.00;;;;5048446;28;20219;-77
2022/03/13 02:33:54;;;;;;;4.45;3.50;;;;;16.90;101227.00;;;;5060919;28;20201;-77
2022/03/13 02:36:40;;;;;;;4.15;3.28;;;;;16.80;101226.00;;;;5060412;28;20992;-77
2022/03/13 02:39:12;;;;;;;3.85;3.30;;;;;16.80;101217.00;;;;5057596;28;20187;-76
2022/03/13 02:41:42;;;;;;;6.15;3.60;;;;;16.80;101217.00;;;;5051969;28;20214;-76
2022/03/13 02:44:11;;;;;;;5.75;3.65;;;;;16.80;101219.00;;;;5061415;28;20695;-77
2022/03/13 02:46:55;;;;;;;4.78;3.28;;;;;16.70;101219.00;;;;5049913;28;20235;-77
2022/03/13 02:49:23;;;;;;;4.50;3.45;;;;;16.80;101221.00;;;;5048064;28;20286;-76
2022/03/13 02:51:52;;;;;;;4.60;3.30;;;;;16.70;101229.00;;;;5054625;28;20211;-76
2022/03/13 02:54:21;;;;;;;4.60;3.65;;;;;16.70;101219.00;;;;5063382;28;20199;-76
2022/03/13 02:56:49;;;;;;;5.57;3.85;;;;;16.70;101219.00;;;;5059888;28;20180;-77
2022/03/13 02:59:16;;;;;;;4.45;3.53;;;;;16.70;101218.00;;;;5068110;28;20280;-77
2022/03/13 03:01:43;;;;;;;4.50;3.55;;;;;16.70;101217.00;;;;5060893;28;20192;-76
2022/03/13 03:04:11;;;;;;;5.22;3.75;;;;;16.60;101216.00;;;;5048618;28;20200;-76
2022/03/13 03:06:40;;;;;;;4.60;3.78;;;;;16.60;101217.00;;;;5054551;28;20199;-77
2022/03/13 03:09:07;;;;;;;4.72;3.45;;;;;16.60;101213.00;;;;5057117;28;20196;-77
2022/03/13 03:11:36;;;;;;;5.95;4.32;;;;;16.60;101220.00;;;;5053036;28;20257;-76
2022/03/13 03:14:03;;;;;;;4.13;3.17;;;;;16.60;101223.00;;;;5063384;28;20720;-77
2022/03/13 03:16:31;;;;;;;5.20;3.72;;;;;16.60;101226.00;;;;5048480;28;20195;-76
2022/03/13 03:18:59;;;;;;;6.70;3.88;;;;;16.60;101220.00;;;;5048639;28;20219;-76
2022/03/13 03:21:26;;;;;;;5.18;3.75;;;;;16.50;101222.00;;;;5047749;28;20196;-77
2022/03/13 03:23:54;;;;;;;5.13;3.60;;;;;16.50;101221.00;;;;5047929;28;20200;-76
2022/03/13 03:26:21;;;;;;;5.00;4.10;;;;;16.50;101226.00;;;;5047553;28;21077;-77
2022/03/13 03:28:49;;;;;;;6.95;5.07;;;;;16.40;101222.00;;;;5058177;28;20202;-77
2022/03/13 03:31:17;;;;;;;4.97;4.07;;;;;16.40;101213.00;;;;5054788;28;20593;-77
2022/03/13 03:33:44;;;;;;;4.63;3.75;;;;;16.40;101221.00;;;;5051443;28;20188;-77
2022/03/13 03:36:15;;;;;;;6.07;4.90;;;;;16.30;101222.00;;;;5051245;28;20200;-77
2022/03/13 03:38:42;;;;;;;5.82;4.50;;;;;16.30;101216.00;;;;5054885;28;20250;-77
2022/03/13 03:41:10;;;;;;;5.65;4.07;;;;;16.30;101219.00;;;;5050840;28;20206;-77
2022/03/13 03:43:37;;;;;;;5.35;4.35;;;;;16.30;101216.00;;;;5065443;28;20693;-78
2022/03/13 03:46:05;;;;;;;7.00;5.13;;;;;16.20;101222.00;;;;5069746;28;20238;-77
2022/03/13 03:48:33;;;;;;;5.28;4.10;;;;;16.20;101218.00;;;;5057536;28;20203;-77
2022/03/13 03:51:00;;;;;;;5.53;4.30;;;;;16.20;101218.00;;;;5069213;28;20223;-77
2022/03/13 03:53:27;;;;;;;6.50;4.78;;;;;16.10;101222.00;;;;5050683;28;20211;-77
2022/03/13 03:55:57;;;;;;;5.75;4.13;;;;;16.10;101218.00;;;;5050744;28;20203;-77
2022/03/13 03:58:24;;;;;;;6.35;4.50;;;;;16.10;101214.00;;;;5054022;28;20218;-77
2022/03/13 04:00:52;;;;;;;8.77;4.70;;;;;16.10;101217.00;;;;5065427;28;20223;-77
2022/03/13 04:03:20;;;;;;;6.28;4.68;;;;;16.10;101217.00;;;;5062219;28;20226;-77
2022/03/13 04:05:48;;;;;;;6.95;4.80;;;;;16.10;101217.00;;;;5061249;28;20666;-77
2022/03/13 04:08:15;;;;;;;6.78;4.78;;;;;16.10;101218.00;;;;5059020;28;20187;-77
2022/03/13 04:10:42;;;;;;;6.63;4.82;;;;;16.10;101211.00;;;;5050104;28;20577;-77
2022/03/13 04:13:09;;;;;;;10.32;4.15;;;;;16.10;101221.00;;;;5050072;28;20199;-77
2022/03/13 04:15:37;;;;;;;5.82;4.75;;;;;16.10;101214.00;;;;5050778;28;20203;-77
2022/03/13 04:18:04;;;;;;;6.53;5.03;;;;;16.10;101220.00;;;;5050053;28;20192;-77
2022/03/13 04:20:33;;;;;;;7.15;5.00;;;;;16.10;101213.00;;;;5056778;28;20194;-77
2022/03/13 04:23:00;;;;;;;8.88;5.43;;;;;16.10;101212.00;;;;5050718;28;20204;-77
2022/03/13 04:25:28;;;;;;;7.15;5.05;;;;;16.10;101207.00;;;;5061668;28;20198;-77
2022/03/13 04:27:58;;;;;;;7.63;5.82;;;;;16.10;101205.00;;;;5060609;28;20191;-77
2022/03/13 04:30:29;;;;;;;7.95;6.10;;;;;16.10;101209.00;;;;5068977;28;20309;-77
2022/03/13 04:32:57;;;;;;;7.65;5.63;;;;;16.10;101200.00;;;;5050838;28;20200;-77
2022/03/13 04:35:25;;;;;;;8.82;6.60;;;;;16.10;101205.00;;;;5057562;28;20196;-77
2022/03/13 04:37:54;;;;;;;8.45;5.75;;;;;16.10;101201.00;;;;5049977;28;20214;-77
2022/03/13 04:40:21;;;;;;;7.53;5.95;;;;;16.10;101203.00;;;;5063333;28;20203;-77
2022/03/13 04:42:48;;;;;;;8.80;6.55;;;;;16.10;101198.00;;;;5050699;28;20649;-77
2022/03/13 04:45:16;;;;;;;8.07;6.00;;;;;16.10;101202.00;;;;5061473;28;20223;-77
2022/03/13 04:47:44;;;;;;;9.80;6.72;;;;;16.10;101200.00;;;;5049956;28;20200;-77
2022/03/13 04:50:11;;;;;;;7.82;6.18;;;;;16.10;101200.00;;;;5049691;28;20665;-77
2022/03/13 04:52:39;;;;;;;9.13;6.30;;;;;16.10;101203.00;;;;5050344;28;20211;-77
2022/03/13 04:55:09;;;;;;;8.27;6.20;;;;;16.10;101199.00;;;;5049277;28;20687;-77
2022/03/13 04:57:36;;;;;;;8.73;6.18;;;;;16.10;101197.00;;;;5049825;28;20286;-77
2022/03/13 05:00:03;;;;;;;10.35;6.82;;;;;16.10;101197.00;;;;5049384;28;20216;-77
2022/03/13 05:02:31;;;;;;;10.15;7.10;;;;;16.10;101202.00;;;;5062878;28;20207;-77
2022/03/13 05:04:59;;;;;;;9.13;6.55;;;;;16.10;101209.00;;;;5066113;28;20188;-77
2022/03/13 05:07:27;;;;;;;8.48;6.43;;;;;16.10;101197.00;;;;5049327;28;20287;-77
2022/03/13 05:09:54;;;;;;;8.10;6.28;;;;;16.10;101204.00;;;;5055740;28;20195;-77
2022/03/13 05:12:29;;;;;;;9.15;6.30;;;;;16.10;101201.00;;;;5055568;28;20227;-77
2022/03/13 05:14:56;;;;;;;10.02;6.60;;;;;16.10;101198.00;;;;5049411;28;20217;-78
2022/03/13 05:17:23;;;;;;;8.13;6.65;;;;;16.10;101201.00;;;;5064349;28;20939;-77
2022/03/13 05:19:51;;;;;;;9.55;6.88;;;;;16.10;101192.00;;;;5059311;28;20204;-77
2022/03/13 05:22:18;;;;;;;9.45;6.25;;;;;16.10;101204.00;;;;5053660;28;20198;-77
2022/03/13 05:24:46;;;;;;;10.50;7.75;;;;;16.10;101203.00;;;;5049183;28;20198;-77
2022/03/13 05:27:13;;;;;;;11.82;7.05;;;;;16.00;101196.00;;;;5049221;28;20204;-77
2022/03/13 05:29:42;;;;;;;10.80;7.60;;;;;16.00;101202.00;;;;5062178;28;20191;-77
2022/03/13 05:32:09;;;;;;;8.82;7.03;;;;;16.00;101197.00;;;;5059067;28;20227;-78
2022/03/13 05:34:37;;;;;;;10.55;7.13;;;;;16.00;101204.00;;;;5068768;28;20219;-77
2022/03/13 05:37:06;;;;;;;15.65;9.27;;;;;16.00;101207.00;;;;5069230;28;20656;-77
2022/03/13 05:39:33;;;;;;;13.32;8.60;;;;;16.00;101196.00;;;;5064224;28;20238;-77
2022/03/13 05:42:01;;;;;;;10.25;7.72;;;;;15.90;101204.00;;;;5049463;28;20204;-77
2022/03/13 05:44:29;;;;;;;10.90;8.35;;;;;15.90;101207.00;;;;5049457;28;20204;-78
2022/03/13 05:46:57;;;;;;;11.70;8.25;;;;;15.90;101193.00;;;;5049744;28;20300;-77
2022/03/13 05:49:24;;;;;;;11.30;8.40;;;;;15.90;101189.00;;;;5053828;28;20202;-77
2022/03/13 05:51:53;;;;;;;10.45;7.70;;;;;15.80;101189.00;;;;5062755;28;20693;-77
2022/03/13 05:54:21;;;;;;;11.23;8.00;;;;;15.80;101189.00;;;;5050901;28;20199;-78
2022/03/13 05:56:49;;;;;;;9.85;7.78;;;;;15.80;101201.00;;;;5062985;28;20282;-77
2022/03/13 05:59:16;;;;;;;12.27;7.80;;;;;15.80;101196.00;;;;5057550;28;20215;-77
2022/03/13 06:01:44;;;;;;;13.32;8.43;;;;;15.80;101191.00;;;;5050508;28;20199;-78
2022/03/13 06:04:13;;;;;;;11.10;7.18;;;;;15.70;101202.00;;;;5052874;28;20199;-77
2022/03/13 06:06:42;;;;;;;11.80;8.00;;;;;15.70;101193.00;;;;5067753;28;20198;-77
2022/03/13 06:09:10;;;;;;;11.30;7.68;;;;;15.70;101196.00;;;;5048680;28;20220;-76
2022/03/13 06:11:40;;;;;;;10.30;7.90;;;;;15.60;101196.00;;;;5057123;28;20238;-77
2022/03/13 06:14:07;;;;;;;10.13;7.85;;;;;15.60;101199.00;;;;5068427;28;20190;-77
2022/03/13 06:16:35;;;;;;;10.57;7.25;;;;;15.60;101209.00;;;;5055225;28;20192;-77
2022/03/13 06:19:02;;;;;;;10.88;7.32;;;;;15.60;101210.00;;;;5048731;28;20692;-78
2022/03/13 06:21:31;;;;;;;9.55;6.95;;;;;15.60;101201.00;;;;5048941;28;20198;-78
2022/03/13 06:23:58;;;;;;;10.30;7.35;;;;;15.60;101206.00;;;;5067216;28;20194;-77
2022/03/13 06:26:25;;;;;;;10.93;7.72;;;;;15.60;101214.00;;;;5048942;28;20289;-78
2022/03/13 06:28:53;;;;;;;12.73;7.05;;;;;15.60;101204.00;;;;5064159;28;20678;-78
2022/03/13 06:31:20;;;;;;;9.05;7.28;;;;;15.50;101219.00;;;;5062550;28;20219;-77
2022/03/13 06:33:47;;;;;;;10.00;7.65;;;;;15.50;101213.00;;;;5060163;28;20207;-78
2022/03/13 06:36:14;;;;;;;9.93;7.15;;;;;15.50;101219.00;;;;5068797;28;20225;-76
2022/03/13 06:38:43;;;;;;;9.40;7.05;;;;;15.50;101210.00;;;;5059773;28;20226;-76
2022/03/13 06:41:11;;;;;;;11.00;7.60;;;;;15.50;101221.00;;;;5049230;28;20203;-76
2022/03/13 06:43:39;;;;;;;10.27;7.20;;;;;15.50;101222.00;;;;5048565;28;20203;-76
2022/03/13 06:46:06;;;;;;;11.43;7.68;;;;;15.50;101222.00;;;;5048941;28;20223;-76
2022/03/13 06:48:34;;;;;;;9.35;6.65;;;;;15.50;101219.00;;;;5047928;28;20241;-76
2022/03/13 06:51:01;;;;;;;9.88;6.82;;;;;15.50;101214.00;;;;5047974;28;20223;-76
2022/03/13 06:53:29;;;;;;;8.80;7.20;;;;;15.50;101217.00;;;;5048503;28;20187;-76
2022/03/13 06:55:57;;;;;;;10.85;7.50;;;;;15.50;101215.00;;;;5050229;28;20249;-76
2022/03/13 06:58:25;;;;;;;9.93;7.05;;;;;15.50;101217.00;;;;5059002;28;20192;-76
2022/03/13 07:00:52;;;;;;;9.55;7.50;;;;;15.50;101220.00;;;;5048249;28;20223;-76
2022/03/13 07:03:19;;;;;;;8.50;6.47;;;;;15.50;101223.00;;;;5060342;28;20209;-76
2022/03/13 07:05:47;;;;;;;10.60;8.13;;;;;15.50;101230.00;;;;5059338;28;20225;-76
2022/03/13 07:08:14;;;;;;;12.40;8.02;;;;;15.50;101227.00;;;;5065442;28;20728;-76
2022/03/13 07:10:42;;;;;;;11.13;7.68;;;;;15.50;101222.00;;;;5052184;28;20202;-76
2022/03/13 07:13:19;;;;;;;10.38;7.05;;;;;15.50;101217.00;;;;5056007;28;20799;-76
2022/03/13 07:15:48;;;;;;;10.32;7.20;;;;;15.60;101215.00;;;;5057797;28;20198;-76
2022/03/13 07:18:17;;;;;;;9.32;7.07;;;;;15.60;101210.00;;;;5057609;28;20196;-77
2022/03/13 07:20:44;;;;;;;9.68;7.65;;;;;15.60;101206.00;;;;5052308;28;20203;-78
2022/03/13 07:23:11;;;;;;;10.63;7.50;;;;;15.60;101214.00;;;;5062743;28;20183;-77
2022/03/13 07:25:40;;;;;;;9.52;7.15;;;;;15.60;101213.00;;;;5065382;28;20203;-77
2022/03/13 07:28:07;;;;;;;9.45;6.90;;;;;15.70;101210.00;;;;5066457;28;20198;-76
2022/03/13 07:30:36;;;;;;;9.70;6.85;;;;;15.70;101216.00;;;;5055278;28;20211;-77
2022/03/13 07:33:03;;;;;;;9.23;6.72;;;;;15.80;101210.00;;;;5051005;28;20224;-76
2022/03/13 07:35:30;;;;;;;9.90;6.97;;;;;15.80;101213.00;;;;5051677;28;20265;-77
2022/03/13 07:37:58;;;;;;;9.32;7.30;;;;;15.80;101214.00;;;;5051858;28;20681;-76
2022/03/13 07:40:25;;;;;;;9.65;6.53;;;;;15.90;101209.00;;;;5051714;28;20200;-77
2022/03/13 07:42:52;;;;;;;8.13;6.40;;;;;15.90;101211.00;;;;5050872;28;20200;-77
2022/03/13 07:45:20;;;;;;;9.35;6.50;;;;;15.90;101221.00;;;;5050146;28;20317;-76
2022/03/13 07:47:49;;;;;;;9.52;6.60;;;;;15.90;101219.00;;;;5051149;28;20203;-77
2022/03/13 07:50:16;;;;;;;9.15;7.15;;;;;16.00;101230.00;;;;5050300;28;20207;-76
2022/03/13 07:52:44;;;;;;;9.63;6.78;;;;;16.00;101223.00;;;;5051380;28;20336;-77
2022/03/13 07:55:11;;;;;;;11.10;7.35;;;;;16.00;101225.00;;;;5050971;28;20298;-77
2022/03/13 07:57:39;;;;;;;10.82;7.25;;;;;16.00;101228.00;;;;5050278;28;20198;-76
2022/03/13 08:00:07;;;;;;;9.93;7.40;;;;;16.00;101233.00;;;;5050809;28;20310;-76
2022/03/13 08:02:36;;;;;;;11.25;6.57;;;;;16.10;101229.00;;;;5050895;28;20199;-77
2022/03/13 08:05:05;;;;;;;9.05;6.95;;;;;16.00;101236.00;;;;5056022;28;20219;-76
2022/03/13 08:07:32;;;;;;;10.05;6.95;;;;;16.10;101225.00;;;;5060057;28;20254;-77
2022/03/13 08:09:59;;;;;;;8.57;6.63;;;;;16.10;101221.00;;;;5055817;28;20250;-77
2022/03/13 08:12:27;;;;;;;8.55;6.60;;;;;16.10;101216.00;;;;5051229;28;20215;-77
2022/03/13 08:14:54;;;;;;;12.57;7.75;;;;;16.20;101219.00;;;;5055029;28;20203;-77
2022/03/13 08:17:21;;;;;;;8.63;6.57;;;;;16.20;101221.00;;;;5050838;28;20222;-77
2022/03/13 08:19:48;;;;;;;8.13;6.10;;;;;16.20;101217.00;;;;5064905;28;20197;-77
2022/03/13 08:22:18;;;;;;;8.98;6.03;;;;;16.30;101216.00;;;;5050327;28;20569;-77
2022/03/13 08:24:46;;;;;;;10.52;7.78;;;;;16.30;101209.00;;;;5050552;28;20199;-76
2022/03/13 08:27:13;;;;;;;8.40;6.47;;;;;16.30;101209.00;;;;5065999;28;20595;-76
2022/03/13 08:29:40;;;;;;;8.13;6.07;;;;;16.30;101202.00;;;;5061599;28;20200;-77
2022/03/13 08:32:08;;;;;;;11.13;7.90;;;;;16.30;101202.00;;;;5050266;28;20231;-77
2022/03/13 08:34:38;;;;;;;9.65;6.50;;;;;16.30;101196.00;;;;5061036;28;20199;-76
2022/03/13 08:37:06;;;;;;;7.75;6.05;;;;;16.40;101201.00;;;;5066643;28;20665;-77
2022/03/13 08:39:35;;;;;;;10.40;7.22;;;;;16.40;101204.00;;;;5063559;28;20199;-77
2022/03/13 08:42:02;;;;;;;11.07;6.55;;;;;16.40;101198.00;;;;5051179;28;20210;-77
2022/03/13 08:44:30;;;;;;;11.27;6.95;;;;;16.50;101190.00;;;;5056230;28;20191;-78
2022/03/13 08:46:57;;;;;;;9.52;6.45;;;;;16.50;101199.00;;;;5049249;28;20223;-77
2022/03/13 08:49:24;;;;;;;8.18;6.15;;;;;16.50;101204.00;;;;5048383;28;20200;-77
2022/03/13 08:51:52;;;;;;;8.90;6.30;;;;;16.60;101192.00;;;;5049451;28;20705;-77
2022/03/13 08:54:20;;;;;;;8.23;6.25;;;;;16.60;101204.00;;;;5049799;28;20248;-76
2022/03/13 08:56:49;;;;;;;8.95;6.70;;;;;16.60;101202.00;;;;5049510;28;20292;-76
2022/03/13 08:59:20;;;;;;;10.05;6.93;;;;;16.60;101199.00;;;;5049446;28;20212;-76
2022/03/13 09:01:47;;;;;;;9.20;6.55;;;;;16.70;101207.00;;;;5049920;28;20290;-76
2022/03/13 09:04:15;;;;;;;9.23;6.43;;;;;16.70;101197.00;;;;5049714;28;20207;-76
2022/03/13 09:06:43;;;;;;;8.93;6.57;;;;;16.80;101207.00;;;;5048748;28;20241;-76
2022/03/13 09:09:11;;;;;;;9.20;6.72;;;;;16.80;101198.00;;;;5049361;28;20203;-77
2022/03/13 09:11:38;;;;;;;9.52;6.50;;;;;16.90;101193.00;;;;5057260;28;20610;-77
2022/03/13 09:14:08;;;;;;;8.45;6.47;;;;;16.90;101196.00;;;;5068972;28;20653;-76
2022/03/13 09:16:41;;;;;;;9.23;6.25;;;;;17.00;101187.00;;;;5068777;28;20268;-76
2022/03/13 09:19:09;;;;;;;9.65;6.70;;;;;17.00;101190.00;;;;5069703;28;20553;-76
2022/03/13 09:21:38;;;;;;;10.35;7.30;;;;;17.10;101191.00;;;;5060297;28;20215;-76
2022/03/13 09:24:07;;;;;;;8.63;6.43;;;;;17.10;101199.00;;;;5048371;28;20742;-77
2022/03/13 09:26:35;;;;;;;8.20;6.35;;;;;17.20;101200.00;;;;5047918;28;20322;-76
2022/03/13 09:29:03;;;;;;;8.55;6.05;;;;;17.20;101197.00;;;;5051578;28;20200;-77
2022/03/13 09:31:31;;;;;;;9.35;6.68;;;;;17.20;101200.00;;;;5049051;28;20196;-76
2022/03/13 09:33:59;;;;;;;9.38;6.60;;;;;17.30;101195.00;;;;5048680;28;20208;-76
2022/03/13 09:36:26;;;;;;;9.27;6.70;;;;;17.30;101186.00;;;;5060025;28;20198;-77
2022/03/13 09:38:53;;;;;;;9.80;6.47;;;;;17.40;101189.00;;;;5051698;28;20253;-76
2022/03/13 09:41:21;;;;;;;9.00;6.15;;;;;17.50;101187.00;;;;5051384;28;20192;-76
2022/03/13 09:43:48;;;;;;;9.70;6.80;;;;;17.50;101190.00;;;;5049505;28;20195;-76
2022/03/13 09:46:16;;;;;;;8.77;6.13;;;;;17.60;101189.00;;;;5051672;28;20241;-76
2022/03/13 09:48:45;;;;;;;8.88;6.57;;;;;17.70;101189.00;;;;5047980;28;20219;-76
2022/03/13 09:51:13;;;;;;;10.02;6.75;;;;;17.70;101187.00;;;;5056413;28;20199;-75
2022/03/13 09:53:40;;;;;;;9.52;6.78;;;;;17.80;101186.00;;;;5061814;28;20212;-75
2022/03/13 09:56:07;;;;;;;9.43;7.18;;;;;17.90;101191.00;;;;5059619;28;20195;-76
2022/03/13 09:58:35;;;;;;;8.85;6.70;;;;;17.90;101186.00;;;;5065803;28;20500;-75
2022/03/13 10:01:02;;;;;;;8.77;6.75;;;;;18.00;101177.00;;;;5063441;28;20226;-74
2022/03/13 10:03:30;;;;;;;8.60;6.38;;;;;18.10;101177.00;;;;5063643;28;20199;-75
2022/03/13 10:06:00;;;;;;;9.20;7.05;;;;;18.20;101173.00;;;;5059384;28;20249;-75
2022/03/13 10:08:32;;;;;;;9.40;6.93;;;;;18.20;101185.00;;;;5056239;28;20203;-75
2022/03/13 10:11:02;;;;;;;9.02;6.40;;;;;18.30;101179.00;;;;5063822;28;20214;-75
2022/03/13 10:13:38;;;;;;;9.60;6.55;;;;;18.40;101183.00;;;;5064840;28;20315;-75
2022/03/13 10:16:07;;;;;;;8.30;6.45;;;;;18.50;101191.00;;;;5068113;28;20195;-75
2022/03/13 10:18:34;;;;;;;7.65;6.30;;;;;18.60;101187.00;;;;5063050;28;20258;-76
2022/03/13 10:21:11;;;;;;;9.35;6.85;;;;;18.70;101188.00;;;;5050026;28;20219;-75
2022/03/13 10:23:38;;;;;;;11.82;6.95;;;;;18.80;101182.00;;;;5050124;28;20210;-75
2022/03/13 10:26:06;;;;;;;9.60;7.38;;;;;18.90;101176.00;;;;5049868;28;20196;-75
2022/03/13 10:28:35;;;;;;;13.02;7.20;;;;;19.00;101181.00;;;;5051004;28;20280;-76
2022/03/13 10:31:15;;;;;;;9.88;7.38;;;;;19.10;101178.00;;;;5046828;28;20199;-74
2022/03/13 10:33:58;;;;;;;9.98;7.20;;;;;19.20;101183.00;;;;5048962;28;20719;-76
2022/03/13 10:36:34;;;;;;;9.75;6.75;;;;;19.30;101178.00;;;;5051358;28;20254;-76
2022/03/13 10:39:03;;;;;;;9.52;7.05;;;;;19.50;101184.00;;;;5050007;28;20292;-75
2022/03/13 10:41:44;;;;;;;8.30;6.97;;;;;19.50;101182.00;;;;5047811;28;20191;-75
2022/03/13 10:44:16;;;;;;;10.63;7.30;;;;;19.60;101186.00;;;;5047811;28;20199;-75
2022/03/13 10:46:44;;;;;;;9.77;7.18;;;;;19.70;101180.00;;;;5046815;28;20705;-75
2022/03/13 10:49:13;;;;;;;10.02;7.85;;;;;19.80;101180.00;;;;5052247;28;20547;-76
2022/03/13 10:51:46;;;;;;;11.20;8.00;;;;;19.80;101180.00;;;;5058234;28;20198;-76
2022/03/13 10:54:29;;;;;;;8.38;7.35;;;;;19.90;101185.00;;;;5046997;28;20223;-75
2022/03/13 10:57:06;;;;;;;9.57;7.30;;;;;20.00;101177.00;;;;5047241;28;20290;-75
2022/03/13 10:59:34;;;;;;;10.68;7.32;;;;;20.20;101171.00;;;;5047997;28;20215;-74
2022/03/13 11:02:13;;;;;;;11.13;7.40;;;;;20.20;101172.00;;;;5047577;28;20196;-74
2022/03/13 11:04:50;;;;;;;11.05;8.43;;;;;20.40;101171.00;;;;5050717;28;20764;-74
2022/03/13 11:07:21;;;;;;;10.93;8.20;;;;;20.50;101164.00;;;;5047176;28;20194;-76
2022/03/13 11:09:48;;;;;;;10.80;7.47;;;;;20.60;101164.00;;;;5048762;28;20195;-75
2022/03/13 11:12:20;;;;;;;10.15;8.07;;;;;20.70;101161.00;;;;5063303;28;20255;-75
2022/03/13 11:14:49;;;;;;;11.70;8.50;;;;;20.80;101159.00;;;;5065840;28;21029;-75
2022/03/13 11:17:19;;;;;;;13.50;9.32;;;;;20.90;101159.00;;;;5054300;28;20199;-75
2022/03/13 11:19:49;;;;;;;10.38;8.00;;;;;21.00;101147.00;;;;5047235;28;20199;-75
2022/03/13 11:22:20;;;;;;;11.60;8.18;;;;;21.10;101145.00;;;;5049107;28;20625;-76
2022/03/13 11:24:49;;;;;;;10.05;8.50;;;;;21.20;101149.00;;;;5048617;28;20196;-76
2022/03/13 11:27:17;;;;;;;12.48;9.32;;;;;21.30;101152.00;;;;5048344;28;20261;-75
2022/03/13 11:29:47;;;;;;;11.60;7.97;;;;;21.40;101150.00;;;;5052709;28;20562;-76
2022/03/13 11:32:31;;;;;;;12.63;8.88;;;;;21.40;101153.00;;;;5066351;28;20198;-77
2022/03/13 11:35:25;;;;;;;10.10;8.00;;;;;21.50;101159.00;;;;5052276;28;20207;-76
2022/03/13 11:38:15;;;;;;;10.02;7.85;;;;;21.60;101155.00;;;;5054368;28;20195;-77
2022/03/13 11:40:43;;;;;;;9.25;7.10;;;;;21.70;101161.00;;;;5048036;28;20201;-77
2022/03/13 11:43:12;;;;;;;11.55;7.35;;;;;21.70;101145.00;;;;5048508;28;20196;-77
2022/03/13 11:45:41;;;;;;;12.35;8.00;;;;;21.70;101142.00;;;;5048776;28;20231;-76
2022/03/13 11:48:45;;;;;;;12.45;8.00;;;;;21.60;101144.00;;;;5049918;28;20204;-76
2022/03/13 11:51:30;;;;;;;9.60;7.03;;;;;21.70;101139.00;;;;5052467;28;20199;-77
2022/03/13 11:54:00;;;;;;;9.93;7.63;;;;;21.80;101131.00;;;;5051500;28;20222;-77
2022/03/13 11:56:29;;;;;;;9.82;8.23;;;;;21.90;101134.00;;;;5063736;28;20188;-78
2022/03/13 11:59:02;;;;;;;11.13;9.35;;;;;22.00;101128.00;;;;5051627;28;20520;-76
2022/03/13 12:01:35;;;;;;;9.25;7.80;;;;;22.00;101135.00;;;;5056381;28;22140;-77
2022/03/13 12:04:26;;;;;;;11.38;9.13;;;;;22.00;101125.00;;;;5051667;28;20291;-78
2022/03/13 12:06:57;;;;;;;10.48;8.23;;;;;22.20;101128.00;;;;5051320;28;20195;-78
2022/03/13 12:09:33;;;;;;;11.70;7.55;;;;;22.20;101120.00;;;;5050467;28;20203;-77
2022/03/13 12:12:03;;;;;;;12.27;8.18;;;;;22.30;101114.00;;;;5050380;28;20296;-76
2022/03/13 12:14:53;;;;;;;12.15;8.57;;;;;22.30;101104.00;;;;5049715;28;20211;-76
2022/03/13 12:17:21;;;;;;;8.52;7.30;;;;;22.50;101117.00;;;;5051603;28;20202;-76